Munster, Indiana
Current Conditions -  °F | °C
As of 10:55 PM on Monday 20 Oct 2014 (Local Time) from KIGQ Reporting Station
Overcast Overcast  
Wind Chill: 52°   Ceiling: 6000
Heat Index: 52°   Visibility: 10mi
Dew Point: 44°   Wind: 5mph
Humidity: 73%   Direction: 10°N
Pressure: 29.99"   Gusts: NA
Location:  41.56°N, 87.5°W
Report Text: KIGQ 210355Z AUTO 01004KT 10SM OVC060 11/07 A2999 RMK AO2 T01110065
Loading
Personal Weather Stations






























Interactive Weather Map
Tropical Storm Tracking
New forecast layout! Learn more

10-Day Weather Forecast

Advertisements
Track Severe Weather on mobile